createdAt,value
2023-03-17T00:02:32.454Z,0.59
2023-03-17T00:07:35.767Z,-0.52
2023-03-17T00:12:39.272Z,0.12
2023-03-17T00:17:43.238Z,0.51
2023-03-17T00:22:58.801Z,0.54
2023-03-17T00:28:04.335Z,0.11
2023-03-17T00:33:08.474Z,0.23
2023-03-17T00:38:16.537Z,-0.04
2023-03-17T00:43:20.915Z,-0.94
2023-03-17T00:48:25.052Z,-0.57
2023-03-17T00:53:29.067Z,-0.15
2023-03-17T00:58:35.038Z,0.40
2023-03-17T01:03:39.691Z,0.39
2023-03-17T01:08:45.574Z,0.37
2023-03-17T01:13:49.404Z,-1.08
2023-03-17T01:18:53.214Z,-1.37
2023-03-17T01:23:56.920Z,0.03
2023-03-17T01:29:00.726Z,0.03
2023-03-17T01:34:05.185Z,0.37
2023-03-17T01:39:08.848Z,-0.13
2023-03-17T01:44:17.866Z,-0.53
2023-03-17T01:49:33.932Z,-1.80
2023-03-17T01:54:51.450Z,0.05
2023-03-17T02:00:09.495Z,-0.53
2023-03-17T02:05:16.810Z,-0.64
2023-03-17T02:10:23.253Z,-0.47
2023-03-17T02:15:44.397Z,-2.11
2023-03-17T02:20:48.224Z,-0.54
2023-03-17T02:25:53.376Z,-0.77
2023-03-17T02:30:57.004Z,-0.96
2023-03-17T02:36:00.401Z,-0.97
2023-03-17T02:41:14.884Z,-1.68
2023-03-17T02:46:18.977Z,-1.54
2023-03-17T02:51:22.280Z,-1.77
2023-03-17T02:56:26.010Z,-1.47
2023-03-17T03:01:30.259Z,-2.42
2023-03-17T03:06:33.993Z,-1.87
2023-03-17T03:11:37.428Z,-2.26
2023-03-17T03:16:41.503Z,-1.56
2023-03-17T03:21:45.091Z,-1.42
2023-03-17T03:26:48.400Z,-2.98
2023-03-17T03:32:02.460Z,-2.59
2023-03-17T03:37:06.051Z,-3.24
2023-03-17T03:42:10.016Z,-2.47
2023-03-17T03:47:13.455Z,-1.49
2023-03-17T03:52:17.123Z,-1.95
2023-03-17T03:57:20.604Z,-1.82
2023-03-17T04:02:24.324Z,-1.41
2023-03-17T04:07:28.045Z,-1.69
2023-03-17T04:12:31.831Z,-2.12
2023-03-17T04:17:35.158Z,-2.10
2023-03-17T04:22:38.458Z,-3.50
2023-03-17T04:27:43.400Z,-1.54
2023-03-17T04:32:47.493Z,-2.36
2023-03-17T04:37:51.580Z,-2.12
2023-03-17T04:42:56.157Z,-1.68
2023-03-17T04:48:00.159Z,-1.59
2023-03-17T04:53:03.718Z,-1.86
2023-03-17T04:58:13.404Z,-1.54
2023-03-17T05:03:26.691Z,-1.47
2023-03-17T05:08:31.592Z,-1.44
2023-03-17T05:13:35.029Z,-2.32
2023-03-17T05:18:49.037Z,-1.50
2023-03-17T05:23:58.733Z,-2.00
2023-03-17T05:29:02.391Z,-2.08
2023-03-17T05:34:06.601Z,-1.58
2023-03-17T05:39:20.148Z,-1.96
2023-03-17T05:44:23.522Z,-2.94
2023-03-17T05:49:30.448Z,-1.68
2023-03-17T05:54:33.839Z,-2.08
2023-03-17T05:59:37.817Z,-2.11
2023-03-17T06:04:41.763Z,-1.18
2023-03-17T06:09:45.658Z,-1.42
2023-03-17T06:14:50.025Z,-1.21
2023-03-17T06:19:53.325Z,-0.82
2023-03-17T06:24:57.057Z,0.00
2023-03-17T06:30:01.489Z,-1.80
2023-03-17T06:35:06.352Z,0.45
2023-03-17T06:40:11.040Z,-0.03
2023-03-17T06:45:15.146Z,0.83
2023-03-17T06:50:18.728Z,1.76
2023-03-17T06:55:28.836Z,1.79
2023-03-17T07:00:32.818Z,2.04
2023-03-17T07:05:36.362Z,1.81
2023-03-17T07:10:44.043Z,2.74
2023-03-17T07:15:47.465Z,2.93
2023-03-17T07:20:51.245Z,3.62
2023-03-17T07:25:54.905Z,4.41
2023-03-17T07:30:58.937Z,2.94
2023-03-17T07:36:03.034Z,4.58
2023-03-17T07:41:11.066Z,5.13
2023-03-17T07:46:14.688Z,5.03
2023-03-17T07:51:22.322Z,5.64
2023-03-17T07:56:26.301Z,5.21
2023-03-17T08:01:41.809Z,5.50
2023-03-17T08:06:47.976Z,6.00
2023-03-17T08:11:51.476Z,6.79
2023-03-17T08:16:55.093Z,6.37
2023-03-17T08:21:58.457Z,7.28
2023-03-17T08:27:01.933Z,8.05
2023-03-17T08:32:05.675Z,8.11
2023-03-17T08:37:11.379Z,8.83
2023-03-17T08:42:14.952Z,8.72
2023-03-17T08:47:19.382Z,9.16
2023-03-17T08:52:23.213Z,7.98
2023-03-17T08:57:26.801Z,9.79
2023-03-17T09:02:47.013Z,9.78
2023-03-17T09:07:51.007Z,9.90
2023-03-17T09:12:55.257Z,11.30
2023-03-17T09:17:58.961Z,11.13
2023-03-17T09:23:08.706Z,11.38
2023-03-17T09:28:13.300Z,12.33
2023-03-17T09:33:26.854Z,11.16
2023-03-17T09:38:30.754Z,11.76
2023-03-17T09:44:05.147Z,13.27
2023-03-17T09:49:21.643Z,15.18
2023-03-17T09:54:44.216Z,13.12
2023-03-17T09:59:59.120Z,14.24
2023-03-17T10:05:30.311Z,15.77
2023-03-17T10:11:00.974Z,15.92
2023-03-17T10:16:10.619Z,15.29
2023-03-17T10:21:19.461Z,13.96
2023-03-17T10:26:49.913Z,13.90
2023-03-17T10:31:57.068Z,12.12
2023-03-17T10:37:30.409Z,13.85
2023-03-17T10:42:36.842Z,15.16
2023-03-17T10:47:45.695Z,15.02
2023-03-17T10:53:01.425Z,16.90
2023-03-17T10:58:23.532Z,17.72
2023-03-17T11:03:35.345Z,15.90
2023-03-17T11:09:05.912Z,13.59
2023-03-17T11:14:19.950Z,13.45
2023-03-17T11:19:33.903Z,13.52
2023-03-17T11:25:06.436Z,14.29
2023-03-17T11:30:24.607Z,14.35
2023-03-17T11:35:51.060Z,13.30
2023-03-17T11:41:06.085Z,13.60
2023-03-17T11:46:13.734Z,13.30
2023-03-17T11:51:51.550Z,13.78
2023-03-17T11:57:16.166Z,13.83
2023-03-17T12:02:55.653Z,13.49
2023-03-17T12:08:16.163Z,13.05
2023-03-17T12:13:46.348Z,13.38
2023-03-17T12:19:13.476Z,13.34
2023-03-17T12:24:19.656Z,12.86
2023-03-17T12:29:37.134Z,13.54
2023-03-17T12:34:48.841Z,13.73
2023-03-17T12:40:15.849Z,13.42
2023-03-17T12:45:36.215Z,13.65
2023-03-17T12:51:07.166Z,14.05
2023-03-17T12:56:31.601Z,14.13
2023-03-17T13:01:58.326Z,13.97
2023-03-17T13:07:20.802Z,13.52
2023-03-17T13:12:41.490Z,14.23
2023-03-17T13:17:44.062Z,13.23
2023-03-17T13:23:15.706Z,13.25
2023-03-17T13:28:44.930Z,14.02
2023-03-17T13:33:55.631Z,14.40
2023-03-17T13:39:24.720Z,14.07
2023-03-17T13:45:07.359Z,14.26
2023-03-17T13:50:17.724Z,14.15
2023-03-17T13:55:21.222Z,13.85
2023-03-17T14:00:27.421Z,12.88
2023-03-17T14:05:35.916Z,13.69
2023-03-17T14:10:38.660Z,13.04
2023-03-17T14:15:57.448Z,14.21
2023-03-17T14:21:04.701Z,14.28
2023-03-17T14:26:12.519Z,14.20
2023-03-17T14:31:26.374Z,13.44
2023-03-17T14:36:33.649Z,14.12
2023-03-17T14:41:36.974Z,13.77
2023-03-17T14:46:41.399Z,14.00
2023-03-17T14:51:46.714Z,12.82
2023-03-17T14:56:52.849Z,12.63
2023-03-17T15:02:23.141Z,13.55
2023-03-17T15:07:44.237Z,13.39
2023-03-17T15:12:48.017Z,13.44
2023-03-17T15:17:57.603Z,13.32
2023-03-17T15:23:15.362Z,11.91
2023-03-17T15:28:32.831Z,12.19
2023-03-17T15:33:40.572Z,12.68
2023-03-17T15:38:43.247Z,12.16
2023-03-17T15:43:45.870Z,12.85
2023-03-17T15:48:49.130Z,13.62
2023-03-17T15:53:55.491Z,12.07
2023-03-17T15:58:58.142Z,11.47
2023-03-17T16:04:00.807Z,11.49
2023-03-17T16:09:15.765Z,11.35
2023-03-17T16:14:18.862Z,11.33
2023-03-17T16:19:25.997Z,10.31
2023-03-17T16:24:39.176Z,10.61
2023-03-17T16:29:51.666Z,10.81
2023-03-17T16:34:54.237Z,10.24
2023-03-17T16:39:57.067Z,9.35
2023-03-17T16:44:59.619Z,9.24
2023-03-17T16:50:02.394Z,9.04
2023-03-17T16:55:06.148Z,8.46
2023-03-17T17:00:22.534Z,8.58
2023-03-17T17:05:30.991Z,9.30
2023-03-17T17:10:35.580Z,9.24
2023-03-17T17:15:48.446Z,9.05
2023-03-17T17:20:52.857Z,7.57
2023-03-17T17:25:56.387Z,7.93
2023-03-17T17:31:00.525Z,7.02
2023-03-17T17:36:05.054Z,6.21
2023-03-17T17:41:09.755Z,6.69
2023-03-17T17:46:19.828Z,7.23
2023-03-17T17:51:33.632Z,6.27
2023-03-17T17:56:38.949Z,5.78
2023-03-17T18:01:41.746Z,5.33
2023-03-17T18:06:44.441Z,4.53
2023-03-17T18:11:47.028Z,4.36
2023-03-17T18:16:49.801Z,4.61
2023-03-17T18:21:52.538Z,4.13
2023-03-17T18:26:55.170Z,4.55
2023-03-17T18:31:58.560Z,4.29
2023-03-17T18:37:02.605Z,5.38
2023-03-17T18:42:05.981Z,4.04
2023-03-17T18:47:09.326Z,4.67
2023-03-17T18:52:14.057Z,4.38
2023-03-17T18:57:17.297Z,2.09
2023-03-17T19:02:20.117Z,3.05
2023-03-17T19:07:23.206Z,2.03
2023-03-17T19:12:26.257Z,2.50
2023-03-17T19:17:29.119Z,3.05
2023-03-17T19:22:32.189Z,2.17
2023-03-17T19:27:35.529Z,3.50
2023-03-17T19:32:38.604Z,3.21
2023-03-17T19:37:41.429Z,3.22
2023-03-17T19:42:44.233Z,4.36
2023-03-17T19:47:47.868Z,3.55
2023-03-17T19:52:53.096Z,3.88
2023-03-17T19:57:56.708Z,3.67
2023-03-17T20:02:59.514Z,1.94
2023-03-17T20:08:02.545Z,2.57
2023-03-17T20:13:06.490Z,3.63
2023-03-17T20:18:09.316Z,3.18
2023-03-17T20:23:12.238Z,1.89
2023-03-17T20:28:14.987Z,2.78
2023-03-17T20:33:18.368Z,3.21
2023-03-17T20:38:22.083Z,2.70
2023-03-17T20:43:24.685Z,2.21
2023-03-17T20:48:27.762Z,2.33
2023-03-17T20:53:40.325Z,0.88
2023-03-17T20:58:44.644Z,0.68
2023-03-17T21:03:48.743Z,0.83
2023-03-17T21:08:51.864Z,1.67
2023-03-17T21:13:55.190Z,2.16
2023-03-17T21:18:58.225Z,1.62
2023-03-17T21:24:03.090Z,0.31
2023-03-17T21:29:05.710Z,1.30
2023-03-17T21:34:08.518Z,1.61
2023-03-17T21:39:12.645Z,1.80
2023-03-17T21:44:17.031Z,1.87
2023-03-17T21:49:20.207Z,1.98
2023-03-17T21:54:22.785Z,-0.08
2023-03-17T21:59:26.058Z,0.59
2023-03-17T22:04:29.365Z,1.15
2023-03-17T22:09:32.155Z,1.16
2023-03-17T22:14:36.402Z,1.32
2023-03-17T22:19:40.929Z,0.69
2023-03-17T22:24:43.744Z,0.24
2023-03-17T22:29:47.123Z,0.00
2023-03-17T22:34:49.706Z,0.59
2023-03-17T22:39:53.075Z,0.70
2023-03-17T22:44:55.848Z,0.06
2023-03-17T22:49:58.759Z,1.02
2023-03-17T22:55:11.961Z,0.62
2023-03-17T23:00:18.267Z,0.90
2023-03-17T23:05:21.328Z,1.39
2023-03-17T23:10:25.449Z,1.52
2023-03-17T23:15:38.322Z,1.04
2023-03-17T23:20:41.622Z,0.05
2023-03-17T23:25:44.832Z,-0.54
2023-03-17T23:30:48.739Z,1.17
2023-03-17T23:35:52.221Z,1.36
2023-03-17T23:40:57.886Z,0.96
2023-03-17T23:46:01.664Z,0.79
2023-03-17T23:51:04.520Z,-0.15
2023-03-17T23:56:12.192Z,0.69
